Time;durP1;ratioP1;P1;durP2;ratioP2;P2;SDS_P1;SDS_P2;PMS_P1;PMS_P2;Temp;Humidity;BMP_temperature;BMP_pressure;BME280_temperature;BME280_humidity;BME280_pressure;Samples;Min_cycle;Max_cycle;Signal;HPM_P1;HPM_P2
2022/02/04 00:24:37;;;;;;;1.98;0.40;;;6.40;99.90;;;;;;5024507;28;20430;-83
2022/02/04 00:27:10;;;;;;;0.65;0.32;;;6.70;99.90;;;;;;5052796;28;20084;-89
2022/02/04 00:29:48;;;;;;;0.10;0.10;;;6.30;99.90;;;;;;5051838;28;20049;-83
2022/02/04 00:32:18;;;;;;;0.10;0.10;;;6.30;99.90;;;;;;5053581;28;20091;-83
2022/02/04 00:34:51;;;;;;;0.10;0.10;;;6.20;99.90;;;;;;5052447;28;20568;-83
2022/02/04 00:37:35;;;;;;;0.40;0.30;;;6.10;99.90;;;;;;5051592;28;20556;-84
2022/02/04 00:40:15;;;;;;;0.75;0.43;;;6.20;99.90;;;;;;5054966;28;20486;-88
2022/02/04 00:42:42;;;;;;;0.00;0.00;;;6.20;99.90;;;;;;5053953;28;20120;-89
2022/02/04 00:45:32;;;;;;;0.17;0.17;;;6.10;99.90;;;;;;5051151;28;20141;-83
2022/02/04 00:48:18;;;;;;;0.10;0.10;;;6.20;99.90;;;;;;5055327;28;20138;-88
2022/02/04 00:53:27;;;;;;;0.10;0.10;;;6.10;99.90;;;;;;5068408;28;20144;-88
2022/02/04 00:56:12;;;;;;;0.10;0.10;;;6.10;99.90;;;;;;5052580;28;20131;-89
2022/02/04 01:26:09;;;;;;;0.10;0.10;;;5.90;99.90;;;;;;5053056;28;20402;-88
2022/02/04 01:28:38;;;;;;;0.10;0.10;;;5.90;99.90;;;;;;5035189;28;20443;-89
2022/02/04 01:31:06;;;;;;;0.10;0.10;;;5.90;99.90;;;;;;5051103;28;20084;-83
2022/02/04 01:33:33;;;;;;;0.10;0.10;;;6.30;99.90;;;;;;5050735;28;20042;-89
2022/02/04 01:36:00;;;;;;;0.10;0.10;;;5.90;99.90;;;;;;5050874;28;20080;-89
2022/02/04 01:38:28;;;;;;;0.10;0.10;;;5.80;99.90;;;;;;5050054;28;20045;-88
2022/02/04 01:40:56;;;;;;;0.10;0.10;;;5.90;99.90;;;;;;5050460;28;20041;-88
2022/02/04 01:43:24;;;;;;;0.08;0.08;;;5.90;99.90;;;;;;5050028;28;20574;-83
2022/02/04 01:46:01;;;;;;;0.10;0.10;;;6.00;99.90;;;;;;5050879;28;20057;-88
2022/02/04 01:48:28;;;;;;;0.10;0.10;;;6.00;99.90;;;;;;5050974;28;20045;-88
2022/02/04 01:50:55;;;;;;;0.10;0.10;;;6.00;99.90;;;;;;5050720;28;20049;-83
2022/02/04 01:53:29;;;;;;;1.38;0.45;;;6.30;99.90;;;;;;5050304;28;20103;-88
2022/02/04 01:56:01;;;;;;;0.00;0.00;;;6.10;99.90;;;;;;5035698;28;20048;-83
2022/02/04 01:58:28;;;;;;;0.10;0.10;;;6.30;99.90;;;;;;5066553;28;20127;-89
2022/02/04 02:00:55;;;;;;;0.10;0.10;;;6.10;99.90;;;;;;5050653;28;20099;-89
2022/02/04 02:03:23;;;;;;;0.10;0.10;;;6.00;99.90;;;;;;5050544;28;20033;-83
2022/02/04 02:05:52;;;;;;;0.10;0.10;;;6.00;99.90;;;;;;5050252;28;20068;-88
2022/02/04 02:08:20;;;;;;;0.10;0.10;;;6.00;99.90;;;;;;5050436;28;20038;-89
2022/02/04 02:10:49;;;;;;;0.10;0.10;;;6.60;99.90;;;;;;5050366;28;20084;-88
2022/02/04 02:35:29;;;;;;;0.05;0.05;;;6.20;99.90;;;;;;5066181;28;20151;-84
2022/02/04 02:45:59;;;;;;;0.10;0.10;;;6.20;99.90;;;;;;5066072;28;20060;-83
2022/02/04 02:53:55;;;;;;;0.52;0.35;;;6.20;99.90;;;;;;5054148;28;20096;-83
2022/02/04 02:59:05;;;;;;;0.00;0.00;;;6.20;99.90;;;;;;5053417;28;20045;-84
2022/02/04 03:01:32;;;;;;;0.10;0.10;;;6.20;99.90;;;;;;5055992;28;20135;-89
2022/02/04 03:04:04;;;;;;;0.10;0.10;;;6.30;99.90;;;;;;5053329;28;20069;-84
2022/02/04 03:06:31;;;;;;;0.10;0.10;;;6.30;99.90;;;;;;5054047;28;20462;-89
2022/02/04 03:08:58;;;;;;;0.10;0.10;;;6.30;99.90;;;;;;5036650;28;20139;-88
2022/02/04 03:11:25;;;;;;;0.10;0.10;;;6.30;99.90;;;;;;5054430;28;20077;-89
2022/02/04 03:13:52;;;;;;;1.65;0.40;;;6.30;99.90;;;;;;5053183;28;20033;-88
2022/02/04 03:16:19;;;;;;;0.00;0.00;;;6.30;99.90;;;;;;5054193;28;20387;-84
2022/02/04 03:18:49;;;;;;;0.00;0.00;;;6.30;99.90;;;;;;5036437;28;20085;-89
2022/02/04 03:24:01;;;;;;;0.10;0.10;;;6.30;99.90;;;;;;5054620;28;20635;-89
2022/02/04 03:26:35;;;;;;;0.10;0.10;;;6.30;99.90;;;;;;5054251;28;20040;-83
2022/02/04 03:29:04;;;;;;;0.10;0.10;;;6.60;99.90;;;;;;5058304;28;20033;-84
2022/02/04 03:31:37;;;;;;;0.03;0.03;;;6.30;99.90;;;;;;5072712;28;20049;-83
2022/02/04 03:34:04;;;;;;;0.10;0.10;;;6.30;99.90;;;;;;5070924;28;20406;-89
2022/02/04 03:36:31;;;;;;;0.10;0.10;;;6.30;99.90;;;;;;5054885;28;20045;-83
2022/02/04 03:38:58;;;;;;;0.10;0.10;;;6.30;99.90;;;;;;5072389;28;20067;-83
2022/02/04 03:41:24;;;;;;;1.45;0.30;;;6.30;99.90;;;;;;5073204;28;20131;-89
2022/02/04 03:43:51;;;;;;;0.10;0.10;;;6.30;99.90;;;;;;5072453;28;20040;-89
2022/02/04 03:46:18;;;;;;;0.10;0.10;;;6.30;99.90;;;;;;5073482;28;20098;-84
2022/02/04 03:48:45;;;;;;;0.10;0.10;;;6.30;99.90;;;;;;5056106;28;20053;-90
2022/02/04 03:51:11;;;;;;;0.10;0.10;;;6.40;99.90;;;;;;5072314;28;20033;-89
2022/02/04 03:53:38;;;;;;;0.10;0.10;;;6.30;99.90;;;;;;5055960;28;20080;-84
2022/02/04 03:56:05;;;;;;;0.10;0.10;;;6.30;99.90;;;;;;5055098;28;20514;-84
2022/02/04 03:58:36;;;;;;;0.10;0.10;;;6.30;99.90;;;;;;5072607;28;20045;-90
2022/02/04 04:01:03;;;;;;;0.08;0.08;;;6.40;99.90;;;;;;5073429;28;20037;-84
2022/02/04 04:03:31;;;;;;;0.10;0.10;;;6.30;99.90;;;;;;5055426;28;20964;-88
2022/02/04 04:05:58;;;;;;;0.10;0.10;;;6.40;99.90;;;;;;5072596;28;20033;-89
2022/02/04 04:08:24;;;;;;;0.10;0.10;;;6.40;99.90;;;;;;5072777;28;20041;-84
2022/02/04 04:10:53;;;;;;;0.10;0.10;;;6.50;99.90;;;;;;5055485;28;20051;-84
2022/02/04 04:13:20;;;;;;;0.05;0.05;;;6.40;99.90;;;;;;5072671;28;20045;-84
2022/02/04 04:15:47;;;;;;;0.03;0.03;;;6.40;99.90;;;;;;5055558;28;20041;-84
2022/02/04 04:18:14;;;;;;;0.10;0.10;;;6.80;99.90;;;;;;5072333;28;20052;-84
2022/02/04 04:20:43;;;;;;;0.10;0.10;;;6.40;99.90;;;;;;5072162;28;20509;-89
2022/02/04 04:23:10;;;;;;;0.10;0.10;;;6.50;99.90;;;;;;5072083;28;20044;-84
2022/02/04 04:25:38;;;;;;;0.10;0.10;;;6.50;99.90;;;;;;5072262;28;20406;-89
2022/02/04 04:28:05;;;;;;;0.10;0.10;;;6.50;99.90;;;;;;5087793;28;20094;-89
2022/02/04 04:30:32;;;;;;;0.10;0.10;;;6.60;99.90;;;;;;5071980;28;20485;-84
2022/02/04 04:32:59;;;;;;;0.08;0.08;;;6.60;99.90;;;;;;5055497;28;20068;-84
2022/02/04 04:35:27;;;;;;;0.10;0.10;;;6.60;99.90;;;;;;5071933;28;20044;-88
2022/02/04 05:29:15;;;;;;;0.10;0.10;;;7.10;99.90;;;;;;5070494;28;20045;-84
2022/02/04 05:31:42;;;;;;;0.10;0.10;;;7.10;99.90;;;;;;5070615;28;20048;-89
2022/02/04 05:34:10;;;;;;;0.10;0.10;;;7.10;99.90;;;;;;5070629;28;20437;-84
2022/02/04 05:36:42;;;;;;;0.10;0.10;;;7.50;99.90;;;;;;5070433;28;20485;-90
2022/02/04 05:39:11;;;;;;;0.10;0.10;;;7.70;99.90;;;;;;5071155;28;20033;-84
2022/02/04 05:41:42;;;;;;;0.17;0.10;;;7.70;99.90;;;;;;5054858;28;20045;-85
2022/02/04 05:44:12;;;;;;;0.10;0.10;;;7.30;99.90;;;;;;5070919;28;20076;-89
2022/02/04 05:47:00;;;;;;;0.10;0.10;;;7.20;99.90;;;;;;5071178;28;20495;-84
2022/02/04 05:49:29;;;;;;;0.00;0.00;;;7.20;99.90;;;;;;5075495;28;20045;-89
2022/02/04 05:52:08;;;;;;;0.10;0.10;;;7.40;99.90;;;;;;5070867;28;20468;-89
2022/02/04 05:57:11;;;;;;;0.10;0.10;;;7.20;99.90;;;;;;5070614;28;20433;-89
2022/02/04 06:02:33;;;;;;;0.10;0.10;;;7.10;99.90;;;;;;5086864;28;20044;-84
2022/02/04 06:05:12;;;;;;;0.10;0.10;;;7.10;99.90;;;;;;5071181;28;20036;-84
2022/02/04 06:08:13;;;;;;;0.10;0.10;;;7.30;99.90;;;;;;5072410;28;20090;-83
2022/02/04 06:13:30;;;;;;;0.40;0.40;;;7.10;99.90;;;;;;5086897;28;20127;-88
2022/02/04 06:24:13;;;;;;;0.00;0.00;;;7.10;99.90;;;;;;5072230;28;20033;-84
2022/02/04 06:26:40;;;;;;;0.10;0.10;;;7.10;99.90;;;;;;5069171;28;20044;-84
2022/02/04 06:29:07;;;;;;;0.10;0.10;;;7.30;99.90;;;;;;5069470;28;20044;-84
2022/02/04 06:31:34;;;;;;;0.10;0.10;;;7.10;99.90;;;;;;5056908;28;20511;-84
2022/02/04 06:34:02;;;;;;;0.00;0.00;;;7.10;99.90;;;;;;5086268;28;20044;-89
2022/02/04 06:36:29;;;;;;;0.10;0.10;;;6.60;99.90;;;;;;5069639;28;20123;-89
2022/02/04 06:38:56;;;;;;;0.10;0.10;;;7.20;99.90;;;;;;5070546;28;20079;-89
2022/02/04 06:41:22;;;;;;;0.10;0.10;;;7.60;99.90;;;;;;5053641;28;20045;-89
2022/02/04 06:43:49;;;;;;;0.10;0.10;;;7.10;99.90;;;;;;5069706;28;20041;-87
2022/02/04 06:46:16;;;;;;;0.10;0.10;;;7.10;99.90;;;;;;5069758;28;20094;-84
2022/02/04 06:48:49;;;;;;;0.10;0.10;;;7.10;99.90;;;;;;5053054;28;20044;-90
2022/02/04 06:51:16;;;;;;;0.10;0.10;;;7.10;99.90;;;;;;5070169;28;20037;-88
2022/02/04 06:53:42;;;;;;;0.00;0.00;;;7.10;99.90;;;;;;5069385;28;20509;-84
2022/02/04 06:56:09;;;;;;;0.10;0.10;;;7.10;99.90;;;;;;5053135;28;20434;-84
2022/02/04 06:58:36;;;;;;;0.20;0.20;;;7.10;99.90;;;;;;5069853;28;20037;-88
2022/02/04 07:01:03;;;;;;;0.10;0.10;;;7.10;99.90;;;;;;5065892;28;20037;-89
2022/02/04 07:03:34;;;;;;;0.00;0.00;;;7.10;99.90;;;;;;5050197;28;20424;-90
2022/02/04 07:06:02;;;;;;;0.00;0.00;;;7.10;99.90;;;;;;5066815;28;20124;-83
2022/02/04 07:21:48;;;;;;;0.10;0.10;;;6.90;99.90;;;;;;5063987;28;20068;-84
2022/02/04 07:24:15;;;;;;;0.10;0.10;;;7.10;99.90;;;;;;5045736;28;20037;-90
2022/02/04 07:26:41;;;;;;;0.00;0.00;;;7.20;99.90;;;;;;5057075;28;20041;-84
2022/02/04 07:29:08;;;;;;;0.00;0.00;;;7.20;99.90;;;;;;5060308;28;20044;-89
2022/02/04 07:31:38;;;;;;;0.00;0.00;;;7.20;99.90;;;;;;5045953;28;20045;-89
2022/02/04 07:34:14;;;;;;;0.10;0.10;;;7.30;99.90;;;;;;5054237;28;20056;-84
2022/02/04 07:42:11;;;;;;;0.08;0.08;;;7.20;99.90;;;;;;5059872;28;20050;-88
2022/02/04 07:44:37;;;;;;;0.10;0.10;;;7.20;99.90;;;;;;5071131;28;20048;-89
2022/02/04 07:47:04;;;;;;;0.10;0.10;;;7.20;99.90;;;;;;5072891;28;20068;-89
2022/02/04 07:49:31;;;;;;;0.10;0.10;;;7.20;99.90;;;;;;5045346;28;20192;-84
2022/02/04 07:51:58;;;;;;;0.10;0.10;;;7.20;99.90;;;;;;5068878;28;20414;-84
2022/02/04 07:54:24;;;;;;;0.10;0.10;;;7.20;99.90;;;;;;5072099;28;20067;-88
2022/02/04 07:56:51;;;;;;;0.10;0.10;;;7.30;99.90;;;;;;5056067;28;20130;-83
2022/02/04 07:59:18;;;;;;;0.10;0.10;;;7.30;99.90;;;;;;5055470;28;20033;-92
2022/02/04 08:01:46;;;;;;;0.05;0.05;;;7.20;99.90;;;;;;5072162;28;20041;-83
2022/02/04 08:04:22;;;;;;;2.47;0.43;;;7.20;99.90;;;;;;5071432;28;20486;-85
2022/02/04 08:06:56;;;;;;;0.10;0.10;;;7.20;99.90;;;;;;5072968;28;20042;-89
2022/02/04 08:20:58;;;;;;;0.10;0.10;;;7.20;99.90;;;;;;5088818;28;20080;-88
2022/02/04 08:34:10;;;;;;;0.10;0.10;;;7.20;99.90;;;;;;5082718;28;20482;-89
2022/02/04 08:55:12;;;;;;;0.00;0.00;;;7.30;99.90;;;;;;5051197;28;20062;-88
2022/02/04 08:57:49;;;;;;;0.00;0.00;;;7.30;99.90;;;;;;5069025;28;20128;-85
2022/02/04 09:00:27;;;;;;;0.00;0.00;;;7.30;99.90;;;;;;5052426;28;20052;-88
2022/02/04 09:03:01;;;;;;;0.00;0.00;;;7.30;99.90;;;;;;5051804;28;20048;-87
2022/02/04 09:05:38;;;;;;;0.08;0.08;;;7.40;99.90;;;;;;5069048;28;20038;-82
2022/02/04 09:08:19;;;;;;;0.00;0.00;;;7.40;99.90;;;;;;5052848;28;20072;-87
2022/02/04 09:10:50;;;;;;;0.10;0.10;;;7.40;99.90;;;;;;5036114;28;20049;-86
2022/02/04 09:19:14;;;;;;;0.03;0.03;;;7.50;99.90;;;;;;5053421;28;20457;-87
2022/02/04 09:24:21;;;;;;;0.10;0.10;;;7.60;99.90;;;;;;5053109;28;20049;-86
2022/02/04 09:26:51;;;;;;;0.10;0.10;;;7.70;99.90;;;;;;5050623;28;20499;-86
2022/02/04 09:29:18;;;;;;;0.10;0.10;;;7.70;99.90;;;;;;5034567;28;20579;-86
2022/02/04 09:31:45;;;;;;;0.10;0.10;;;7.70;99.90;;;;;;5066630;28;20104;-86
2022/02/04 09:34:12;;;;;;;0.05;0.05;;;7.70;99.90;;;;;;5050733;28;20056;-86
2022/02/04 09:36:38;;;;;;;0.08;0.08;;;7.90;99.90;;;;;;5066408;28;20076;-87
2022/02/04 09:39:07;;;;;;;0.00;0.00;;;7.90;99.90;;;;;;5034202;28;20044;-83
2022/02/04 09:41:35;;;;;;;0.00;0.00;;;8.00;99.90;;;;;;5050430;28;20124;-83
2022/02/04 09:44:02;;;;;;;0.30;0.30;;;7.90;99.90;;;;;;5034103;28;20486;-87
2022/02/04 09:46:34;;;;;;;0.08;0.08;;;8.00;99.90;;;;;;5067034;28;20099;-83
2022/02/04 09:49:03;;;;;;;0.00;0.00;;;8.00;99.90;;;;;;5067316;28;20049;-83
2022/02/04 09:51:52;;;;;;;0.00;0.00;;;8.00;99.90;;;;;;5067120;28;20040;-83
2022/02/04 10:08:44;;;;;;;0.00;0.00;;;8.10;99.90;;;;;;5061252;28;20090;-91
2022/02/04 10:17:09;;;;;;;0.10;0.10;;;8.10;99.90;;;;;;5066331;28;20049;-89
2022/02/04 10:19:49;;;;;;;0.10;0.10;;;8.10;99.90;;;;;;5049107;28;20116;-83
2022/02/04 10:22:22;;;;;;;0.05;0.05;;;8.20;99.90;;;;;;5050004;28;20037;-89
2022/02/04 10:24:58;;;;;;;0.10;0.10;;;8.20;99.90;;;;;;5050141;28;20045;-88
2022/02/04 10:27:29;;;;;;;0.10;0.10;;;8.20;99.90;;;;;;5050423;28;20045;-88
2022/02/04 10:29:59;;;;;;;0.17;0.17;;;8.30;99.90;;;;;;5063902;28;20049;-84
2022/02/04 10:32:49;;;;;;;0.00;0.00;;;8.30;99.90;;;;;;5057149;28;20120;-90
2022/02/04 10:35:37;;;;;;;0.00;0.00;;;8.30;99.90;;;;;;5030657;28;20083;-90
2022/02/04 10:38:12;;;;;;;0.10;0.10;;;8.30;99.90;;;;;;5030677;28;20100;-83
2022/02/04 10:49:03;;;;;;;0.00;0.00;;;8.40;99.90;;;;;;5077727;28;20077;-83
2022/02/04 10:52:00;;;;;;;0.10;0.10;;;8.40;99.90;;;;;;5053907;28;20402;-86
2022/02/04 11:00:28;;;;;;;0.10;0.10;;;8.40;99.90;;;;;;5036395;28;20049;-91
2022/02/04 11:03:08;;;;;;;0.05;0.05;;;8.40;99.90;;;;;;5067261;28;20056;-91
2022/02/04 11:05:53;;;;;;;0.15;0.10;;;8.40;99.90;;;;;;5035704;28;20061;-96
2022/02/04 11:36:13;;;;;;;0.00;0.00;;;8.70;99.90;;;;;;5069832;28;20050;-90
2022/02/04 11:48:08;;;;;;;0.03;0.03;;;8.80;99.90;;;;;;5050247;28;20044;-90
2022/02/04 11:51:10;;;;;;;0.00;0.00;;;8.90;99.90;;;;;;5066717;28;20041;-93
2022/02/04 11:53:44;;;;;;;0.00;0.00;;;8.90;99.90;;;;;;5076881;28;20559;-91
2022/02/04 11:56:11;;;;;;;0.10;0.10;;;9.00;99.90;;;;;;5058859;28;20571;-94
2022/02/04 11:58:57;;;;;;;0.03;0.03;;;9.00;99.90;;;;;;5058557;28;20037;-91
2022/02/04 12:01:24;;;;;;;0.10;0.10;;;9.00;99.90;;;;;;5058923;28;20055;-95
2022/02/04 12:04:14;;;;;;;0.00;0.00;;;9.00;99.90;;;;;;5063047;28;20800;-93
2022/02/04 12:06:41;;;;;;;0.08;0.08;;;9.00;99.90;;;;;;5069351;28;20071;-90
2022/02/04 12:09:35;;;;;;;0.00;0.00;;;9.00;99.90;;;;;;5052900;28;20041;-93
2022/02/04 12:12:02;;;;;;;0.10;0.10;;;9.00;99.90;;;;;;5053230;28;20508;-90
2022/02/04 12:14:33;;;;;;;0.20;0.20;;;9.00;99.90;;;;;;5061305;28;20105;-91
2022/02/04 12:17:08;;;;;;;0.00;0.00;;;8.90;99.90;;;;;;5062368;28;20037;-96
2022/02/04 12:19:52;;;;;;;0.00;0.00;;;8.90;99.90;;;;;;5058493;28;20037;-95
2022/02/04 12:22:55;;;;;;;0.03;0.03;;;9.00;99.90;;;;;;5055856;28;20056;-90
2022/02/04 12:26:02;;;;;;;0.00;0.00;;;8.90;99.90;;;;;;5051131;28;20083;-95
2022/02/04 12:28:48;;;;;;;0.05;0.05;;;8.90;99.90;;;;;;5048014;28;20068;-90
2022/02/04 12:31:30;;;;;;;0.00;0.00;;;8.90;99.90;;;;;;5052208;28;20050;-95
2022/02/04 12:34:12;;;;;;;0.00;0.00;;;8.50;99.90;;;;;;5053046;28;20049;-94
2022/02/04 12:36:41;;;;;;;0.10;0.10;;;9.00;99.90;;;;;;5052478;28;20042;-95
2022/02/04 12:39:23;;;;;;;0.10;0.10;;;9.00;99.90;;;;;;5052474;28;20083;-95
2022/02/04 12:41:53;;;;;;;0.10;0.10;;;9.00;99.90;;;;;;5052134;28;20537;-90
2022/02/04 12:44:26;;;;;;;0.10;0.10;;;9.00;99.90;;;;;;5053214;28;20053;-90
2022/02/04 12:47:05;;;;;;;0.00;0.00;;;9.00;99.90;;;;;;5068501;28;20037;-95
2022/02/04 12:49:34;;;;;;;0.10;0.10;;;9.00;99.90;;;;;;5051131;28;20045;-94
2022/02/04 12:52:14;;;;;;;0.00;0.00;;;9.00;99.90;;;;;;5051917;28;20122;-89
2022/02/04 12:54:45;;;;;;;0.03;0.03;;;9.00;99.90;;;;;;5051769;28;20042;-94
2022/02/04 12:59:56;;;;;;;0.00;0.00;;;9.00;99.90;;;;;;5062661;28;20043;-95
2022/02/04 13:10:24;;;;;;;0.00;0.00;;;9.00;99.90;;;;;;5073960;28;20131;-95
2022/02/04 13:13:01;;;;;;;0.00;0.00;;;9.00;99.90;;;;;;5053214;28;20072;-91
2022/02/04 13:15:31;;;;;;;0.10;0.10;;;8.90;99.90;;;;;;5052692;28;20042;-95
2022/02/04 13:18:05;;;;;;;0.00;0.00;;;8.90;99.90;;;;;;5066189;28;20040;-94
2022/02/04 13:20:36;;;;;;;0.00;0.00;;;8.90;99.90;;;;;;5052534;28;20406;-95
2022/02/04 13:23:08;;;;;;;0.00;0.00;;;8.80;99.90;;;;;;5055103;28;20041;-93
2022/02/04 13:25:40;;;;;;;0.05;0.05;;;8.80;99.90;;;;;;5066993;28;20136;-90
2022/02/04 13:28:15;;;;;;;0.10;0.10;;;8.70;99.90;;;;;;5042368;28;20053;-94
2022/02/04 13:31:03;;;;;;;0.03;0.03;;;8.60;99.90;;;;;;5048993;28;20041;-90
2022/02/04 13:33:33;;;;;;;0.05;0.05;;;8.10;99.90;;;;;;5061400;28;20279;-91
2022/02/04 13:36:21;;;;;;;0.08;0.08;;;8.30;99.90;;;;;;5042414;28;20506;-91
2022/02/04 13:39:12;;;;;;;0.08;0.08;;;8.30;99.90;;;;;;5031104;28;20045;-95
2022/02/04 13:47:06;;;;;;;0.00;0.00;;;8.00;99.90;;;;;;5087614;28;20051;-95
2022/02/04 13:49:50;;;;;;;0.05;0.05;;;7.90;99.90;;;;;;5054484;28;20041;-90
2022/02/04 13:52:24;;;;;;;0.03;0.03;;;7.80;99.90;;;;;;5067777;28;20513;-92
2022/02/04 13:57:49;;;;;;;0.10;0.10;;;7.70;99.90;;;;;;5067647;28;20049;-92
2022/02/04 14:03:46;;;;;;;0.03;0.03;;;8.00;99.90;;;;;;5070457;28;20429;-93
2022/02/04 14:06:25;;;;;;;0.10;0.10;;;7.60;99.90;;;;;;5048492;28;20045;-93
2022/02/04 14:09:03;;;;;;;0.10;0.10;;;7.40;99.90;;;;;;5051270;28;20041;-93
2022/02/04 14:11:39;;;;;;;0.10;0.10;;;6.70;99.90;;;;;;5053372;28;20041;-93
2022/02/04 14:14:09;;;;;;;0.10;0.10;;;6.90;99.90;;;;;;5057129;28;20482;-91
2022/02/04 14:16:37;;;;;;;0.10;0.10;;;6.00;99.90;;;;;;5050612;28;20045;-91
2022/02/04 14:19:05;;;;;;;0.10;0.10;;;5.60;99.90;;;;;;5056061;28;20091;-90
2022/02/04 14:21:39;;;;;;;0.10;0.10;;;5.80;99.90;;;;;;5067208;28;20103;-94
2022/02/04 14:24:11;;;;;;;0.10;0.10;;;5.30;99.90;;;;;;5042043;28;20033;-91
2022/02/04 14:26:43;;;;;;;0.10;0.10;;;5.20;99.90;;;;;;5038943;28;20076;-94
2022/02/04 14:37:07;;;;;;;0.08;0.08;;;4.40;99.90;;;;;;5084270;28;20038;-91
2022/02/04 15:01:18;;;;;;;0.10;0.10;;;3.80;99.90;;;;;;5070845;28;20406;-92
2022/02/04 15:03:55;;;;;;;0.10;0.10;;;4.70;99.90;;;;;;5057466;28;20049;-89
2022/02/04 15:06:29;;;;;;;0.15;0.15;;;3.70;99.90;;;;;;5064854;28;20090;-90
2022/02/04 15:08:56;;;;;;;0.10;0.10;;;3.70;99.90;;;;;;5054823;28;20046;-93
2022/02/04 15:11:30;;;;;;;0.13;0.13;;;3.50;99.90;;;;;;5054852;28;20033;-90
2022/02/04 15:14:01;;;;;;;0.10;0.10;;;3.40;99.90;;;;;;5054255;28;20037;-94
2022/02/04 15:16:35;;;;;;;0.10;0.10;;;3.40;99.90;;;;;;5055507;28;20154;-92
2022/02/04 15:19:04;;;;;;;0.10;0.10;;;3.30;99.90;;;;;;5054609;28;20041;-92
2022/02/04 15:21:32;;;;;;;0.20;0.20;;;3.30;99.90;;;;;;5054196;28;20503;-92
2022/02/04 15:23:59;;;;;;;0.10;0.10;;;3.40;99.90;;;;;;5055098;28;20033;-92
2022/02/04 15:26:44;;;;;;;0.20;0.20;;;3.30;99.90;;;;;;5057385;28;20560;-92
2022/02/04 15:29:14;;;;;;;0.10;0.10;;;3.40;99.90;;;;;;5067861;28;20055;-92
2022/02/04 15:31:56;;;;;;;0.20;0.20;;;3.30;99.90;;;;;;5067023;28;20537;-90
2022/02/04 15:34:24;;;;;;;0.20;0.20;;;3.30;99.90;;;;;;5071111;28;20041;-92
2022/02/04 15:36:52;;;;;;;0.20;0.20;;;2.60;99.90;;;;;;5066081;28;20095;-90
2022/02/04 15:39:21;;;;;;;0.20;0.20;;;3.20;99.90;;;;;;5054432;28;20045;-90
2022/02/04 15:41:53;;;;;;;0.10;0.10;;;3.20;99.90;;;;;;5055458;28;20042;-94
2022/02/04 15:44:34;;;;;;;0.70;0.28;;;3.30;99.90;;;;;;5060256;28;20502;-95
2022/02/04 15:50:00;;;;;;;0.20;0.20;;;4.00;99.90;;;;;;5070225;28;20095;-91
2022/02/04 16:05:42;;;;;;;0.10;0.10;;;3.30;99.90;;;;;;5069665;28;19920;-93
2022/02/04 16:08:17;;;;;;;0.10;0.10;;;3.40;99.90;;;;;;5067110;28;20557;-96
2022/02/04 16:13:55;;;;;;;0.20;0.20;;;3.80;99.90;;;;;;5070849;28;20561;-95
2022/02/04 16:16:36;;;;;;;0.10;0.10;;;3.40;99.90;;;;;;5066193;28;20484;-94
2022/02/04 16:19:10;;;;;;;0.10;0.10;;;3.30;99.90;;;;;;5082687;28;20041;-95
2022/02/04 16:22:01;;;;;;;0.15;0.15;;;3.40;99.90;;;;;;5052996;28;20124;-95
2022/02/04 16:28:37;;;;;;;0.20;0.20;;;3.40;99.90;;;;;;5068128;28;20060;-94
2022/02/04 16:29:55;;;;;;;0.10;0.10;;;3.30;99.90;;;;;;5068093;28;20426;-92
2022/02/04 16:32:22;;;;;;;0.10;0.10;;;3.90;99.90;;;;;;5052304;28;20232;-95
2022/02/04 16:35:02;;;;;;;0.15;0.15;;;3.40;99.90;;;;;;5052310;28;20041;-89
2022/02/04 16:37:38;;;;;;;0.20;0.20;;;3.40;99.90;;;;;;5070105;28;20048;-91
2022/02/04 16:40:16;;;;;;;0.10;0.10;;;3.50;99.90;;;;;;5039408;28;20055;-93
2022/02/04 16:42:44;;;;;;;0.13;0.13;;;3.40;99.90;;;;;;5057140;28;20033;-89
2022/02/04 16:45:10;;;;;;;0.10;0.10;;;3.40;99.90;;;;;;5035365;28;20502;-95
2022/02/04 16:47:37;;;;;;;0.10;0.10;;;3.40;99.90;;;;;;5034876;28;20163;-88
2022/02/04 16:50:06;;;;;;;0.10;0.10;;;3.50;99.90;;;;;;5067826;28;20041;-95
2022/02/04 16:52:32;;;;;;;0.10;0.10;;;3.40;99.90;;;;;;5053760;28;20048;-88
2022/02/04 16:55:00;;;;;;;0.10;0.10;;;3.40;99.90;;;;;;4996919;28;1129821;-88
2022/02/04 16:57:28;;;;;;;0.10;0.10;;;3.50;99.90;;;;;;5036806;28;20477;-94
2022/02/04 16:59:59;;;;;;;0.20;0.20;;;3.50;99.90;;;;;;5061426;28;20049;-96
2022/02/04 17:09:54;;;;;;;0.20;0.20;;;3.40;99.90;;;;;;5030102;28;20053;-95
2022/02/04 17:12:29;;;;;;;0.20;0.20;;;3.40;99.90;;;;;;5064687;28;20049;-90
2022/02/04 17:14:57;;;;;;;0.20;0.20;;;3.40;99.90;;;;;;5062687;28;20402;-96
2022/02/04 17:17:24;;;;;;;0.10;0.10;;;3.40;99.90;;;;;;5052999;28;20052;-90
2022/02/04 17:20:06;;;;;;;0.10;0.10;;;3.40;99.90;;;;;;5060814;28;20041;-95
2022/02/04 17:22:35;;;;;;;0.20;0.20;;;3.40;99.90;;;;;;5063102;28;20045;-90
2022/02/04 17:25:07;;;;;;;0.20;0.20;;;3.40;99.90;;;;;;5058601;28;20038;-94
2022/02/04 17:27:36;;;;;;;0.10;0.10;;;3.40;99.90;;;;;;5061574;28;20072;-89
2022/02/04 17:30:08;;;;;;;0.20;0.20;;;3.30;99.90;;;;;;5056241;28;20037;-89
2022/02/04 17:32:35;;;;;;;0.13;0.13;;;3.40;99.90;;;;;;5036259;28;20052;-88
2022/02/04 17:35:02;;;;;;;0.10;0.10;;;3.90;99.90;;;;;;5067866;28;20128;-89
2022/02/04 17:37:29;;;;;;;0.10;0.10;;;3.50;99.90;;;;;;5070556;28;20047;-89
2022/02/04 17:39:56;;;;;;;0.17;0.17;;;3.40;99.90;;;;;;5053820;28;20498;-95
2022/02/04 17:42:25;;;;;;;0.10;0.10;;;3.40;99.90;;;;;;5051056;28;20044;-95
2022/02/04 17:44:54;;;;;;;0.10;0.10;;;4.20;99.90;;;;;;5045620;28;20057;-89
2022/02/04 17:47:25;;;;;;;0.10;0.10;;;3.40;99.90;;;;;;5032913;28;20041;-89
2022/02/04 17:50:11;;;;;;;0.20;0.20;;;3.70;99.90;;;;;;5068431;28;20056;-90
2022/02/04 17:52:45;;;;;;;0.10;0.10;;;4.20;99.90;;;;;;5036165;28;20037;-83
2022/02/04 17:55:20;;;;;;;0.10;0.10;;;3.60;99.90;;;;;;5031387;28;20090;-82
2022/02/04 17:57:55;;;;;;;0.20;0.20;;;3.80;99.90;;;;;;5031497;28;20048;-89
2022/02/04 18:05:42;;;;;;;0.20;0.20;;;3.50;99.90;;;;;;5051618;28;20378;-87
2022/02/04 18:08:09;;;;;;;0.13;0.13;;;3.70;99.90;;;;;;5035067;28;20037;-87
2022/02/04 18:10:36;;;;;;;0.10;0.10;;;3.50;99.90;;;;;;5050028;28;20433;-82
2022/02/04 18:13:04;;;;;;;0.10;0.10;;;3.60;99.90;;;;;;5050201;28;20041;-86
2022/02/04 18:15:31;;;;;;;0.10;0.10;;;4.20;99.90;;;;;;5050217;28;20042;-82
2022/02/04 18:17:58;;;;;;;0.20;0.20;;;3.70;99.90;;;;;;5050210;28;20041;-86
2022/02/04 18:20:25;;;;;;;0.10;0.10;;;3.60;99.90;;;;;;5049759;28;20045;-82
2022/02/04 18:22:53;;;;;;;0.10;0.10;;;3.50;99.90;;;;;;5050015;28;20440;-87
2022/02/04 18:25:20;;;;;;;0.10;0.10;;;3.60;99.90;;;;;;5033344;28;20172;-82
2022/02/04 18:27:48;;;;;;;0.20;0.20;;;4.00;99.90;;;;;;5050181;28;20128;-87
2022/02/04 18:30:17;;;;;;;0.20;0.20;;;3.80;99.90;;;;;;5049123;28;20049;-81
2022/02/04 18:32:47;;;;;;;0.10;0.10;;;3.50;99.90;;;;;;5049529;28;20068;-87
2022/02/04 18:35:16;;;;;;;0.20;0.20;;;3.70;99.90;;;;;;5050412;28;20045;-86
2022/02/04 18:37:50;;;;;;;0.10;0.10;;;3.50;99.90;;;;;;5066764;28;20038;-82
2022/02/04 18:43:22;;;;;;;0.10;0.10;;;3.30;99.90;;;;;;5052665;28;20048;-82
2022/02/04 18:45:55;;;;;;;;;;;3.30;99.90;;;;;;5036991;28;20034;-82
2022/02/04 18:48:24;;;;;;;0.20;0.20;;;3.60;99.90;;;;;;5034005;28;20378;-82
2022/02/04 18:51:18;;;;;;;0.20;0.20;;;3.30;99.90;;;;;;5050154;28;20124;-82
2022/02/04 18:53:55;;;;;;;0.10;0.10;;;3.30;99.90;;;;;;5036849;28;20203;-86
2022/02/04 18:56:45;;;;;;;0.10;0.10;;;3.30;99.90;;;;;;5050902;28;20053;-82
2022/02/04 18:59:12;;;;;;;0.10;0.10;;;3.60;99.90;;;;;;5049589;28;20052;-82
2022/02/04 19:01:39;;;;;;;0.10;0.10;;;3.30;99.90;;;;;;5033153;28;20172;-87
2022/02/04 19:04:11;;;;;;;0.20;0.20;;;3.50;99.90;;;;;;5049958;28;20136;-86
2022/02/04 19:06:44;;;;;;;0.20;0.20;;;3.30;99.90;;;;;;5051122;28;20192;-87
2022/02/04 19:09:10;;;;;;;0.10;0.10;;;3.30;99.90;;;;;;5050088;28;20045;-82
2022/02/04 19:11:45;;;;;;;0.10;0.10;;;3.30;99.90;;;;;;5049467;28;20037;-87
2022/02/04 19:19:23;;;;;;;0.20;0.20;;;3.30;99.90;;;;;;5049956;28;20055;-87
2022/02/04 19:21:59;;;;;;;0.10;0.10;;;3.50;99.90;;;;;;5050008;28;20049;-86
2022/02/04 19:24:30;;;;;;;0.20;0.20;;;3.50;99.90;;;;;;5049440;28;20076;-86
2022/02/04 19:26:56;;;;;;;0.20;0.20;;;3.70;99.90;;;;;;5065456;28;20512;-87
2022/02/04 19:29:25;;;;;;;0.20;0.20;;;3.10;99.90;;;;;;5032317;28;20045;-82
2022/02/04 19:31:55;;;;;;;0.20;0.20;;;3.60;99.90;;;;;;5065430;28;20042;-86
2022/02/04 19:34:24;;;;;;;0.20;0.20;;;3.20;99.90;;;;;;5051614;28;20048;-82
2022/02/04 19:36:53;;;;;;;0.20;0.20;;;3.40;99.90;;;;;;5053338;28;20072;-86
2022/02/04 19:39:19;;;;;;;0.20;0.20;;;3.50;99.90;;;;;;5052814;28;20758;-82
2022/02/04 19:41:57;;;;;;;0.10;0.10;;;3.50;99.90;;;;;;5052611;28;20058;-81
2022/02/04 19:44:25;;;;;;;0.20;0.20;;;3.20;99.90;;;;;;5037377;28;20045;-81
2022/02/04 19:46:57;;;;;;;0.20;0.20;;;4.00;99.90;;;;;;5053332;28;20120;-82
2022/02/04 19:49:27;;;;;;;0.20;0.20;;;3.60;99.90;;;;;;5053167;28;20092;-86
2022/02/04 19:52:20;;;;;;;0.10;0.10;;;3.30;99.90;;;;;;5052276;28;20064;-81
2022/02/04 20:27:40;;;;;;;0.20;0.20;;;3.50;99.90;;;;;;5023710;28;20046;-81
2022/02/04 20:30:11;;;;;;;0.20;0.20;;;3.20;99.90;;;;;;5051852;28;20061;-81
2022/02/04 20:32:40;;;;;;;0.10;0.10;;;3.20;99.90;;;;;;5067316;28;20037;-86